This demonstration page uses our WeatherBlox Daily Observations layout. Learn more.

36.17497, -115.13722

Hourly Observations for August 15, 2018

Temp ( °F °C ) Dew Point ( °F °C ) Humidity (%) Winds ( mph kmh ) Pressure ( in mb ) Visibility ( mi km ) Precip ( " mm )
12:53 am 00:53 Clear 91 32.8 49 9.4 24 24 SE 8 13 29.78 1009 10 16.0934 0 0
1:53 am 01:53 Clear 87 30.6 50 10 28 28 ESE 8 13 29.8 1009 10 16.0934 0 0
2:53 am 02:53 Clear 89 31.7 53 11.7 29 29 ENE 5 7 29.8 1009 10 16.0934 0 0
3:53 am 03:53 Clear 86 30 55 12.8 35 35 E 12 19 29.82 1010 10 16.0934 0 0
4:53 am 04:53 Clear 85 29.4 55 12.8 36 36 E 12 19 29.83 1010 10 16.0934 0 0
5:53 am 05:53 Clear 85 29.4 56 13.3 37 37 E 5 7 29.86 1011 10 16.0934 0 0
6:53 am 06:53 Sunny 86 30 57 13.9 37 37 NNE 3 6 29.88 1012 10 16.0934 0 0
7:53 am 07:53 Sunny 88 31.1 57 13.9 35 35 E 5 7 29.89 1012 10 16.0934 0 0
8:53 am 08:53 Sunny 89 31.7 57 13.9 34 34 VRB 3 6 29.89 1012 10 16.0934 0 0
9:53 am 09:53 Sunny 91 32.8 57 13.9 32 32 VRB 6 9 29.9 1012 10 16.0934 0 0
10:53 am 10:53 Sunny 93 33.9 56 13.3 29 29 SSE 9 15 29.9 1012 10 16.0934 0 0
11:53 am 11:53 Sunny 96 35.6 54 12.2 24 24 S 3 6 29.88 1012 10 16.0934 0 0
12:53 pm 12:53 Sunny 99 37.2 52 11.1 21 21 S 9 15 29.85 1011 10 16.0934 0 0
1:53 pm 13:53 Sunny 101 38.3 52 11.1 19 19 ESE 9 15 29.82 1010 10 16.0934 0 0
2:53 pm 14:53 Sunny 102 38.9 51 10.6 18 18 SE 9 15 29.79 1009 10 16.0934 0 0
3:53 pm 15:53 Sunny 99 37.2 52 11.1 21 21 SW 24 39 29.79 1009 10 16.0934 0 0
4:53 pm 16:53 Sunny 95 35 52 11.1 23 23 SW 16 26 29.8 1009 10 16.0934 0 0
5:53 pm 17:53 Sunny 94 34.4 47 8.3 20 20 SSW 22 35 29.79 1009 10 16.0934 0 0
6:53 pm 18:53 Sunny 94 34.4 48 8.9 21 21 SSW 17 28 29.8 1009 10 16.0934 0 0
7:53 pm 19:53 Clear 93 33.9 48 8.9 21 21 WSW 7 11 29.81 1010 10 16.0934 0 0
8:53 pm 20:53 Clear 92 33.3 48 8.9 22 22 S 6 9 29.85 1011 10 16.0934 0 0
9:53 pm 21:53 Clear 90 32.2 50 10 25 25 S 10 17 29.88 1012 10 16.0934 0 0
10:53 pm 22:53 Clear 89 31.7 55 12.8 31 31 ENE 13 20 29.9 1013 10 16.0934 0 0
11:53 pm 23:53 Clear 87 30.6 55 12.8 34 34 E 12 19 29.92 1013 10 16.0934 0 0

Powered by AerisWeather